Terminal Aerodrome Forecast
Issued by NWS Sterling, VA

Home | Current Version | Previous Version | Text Only | Print | Product List | Glossary On
Versions: 1 2 3 4 5 6 7 8 9 10 11 12 13 14 15 16 17
000
FTUS41 KLWX 211700 AAA
TAFMRB
TAF AMD
KMRB 211745Z 2118/2218 05003KT P6SM FEW060 BKN150
      TEMPO 2118/2119 3SM -TSRA BKN030CB
     FM212000 15006KT P6SM SCT030 BKN150
     FM212100 14006KT P6SM VCTS SCT030CB BKN200
     FM220400 00000KT P6SM BKN120
     FM220800 00000KT 4SM BR BKN070
     FM221200 00000KT P6SM BKN070=

USA.gov is the U.S. government's official web portal to all federal, state and local government web resources and services.